sensor_id;sensor_type;location;lat;lon;timestamp;temperature;humidity
11239;DHT22;5677;48.488;13.436;2024-01-30T00:00:32;11.90;48.20
11239;DHT22;5677;48.488;13.436;2024-01-30T00:02:59;12.00;48.20
11239;DHT22;5677;48.488;13.436;2024-01-30T00:05:27;11.90;48.20
11239;DHT22;5677;48.488;13.436;2024-01-30T00:07:54;11.90;48.20
11239;DHT22;5677;48.488;13.436;2024-01-30T00:10:21;11.90;48.20
11239;DHT22;5677;48.488;13.436;2024-01-30T00:12:47;11.90;48.20
11239;DHT22;5677;48.488;13.436;2024-01-30T00:15:14;11.90;48.20
11239;DHT22;5677;48.488;13.436;2024-01-30T00:17:41;11.90;48.20
11239;DHT22;5677;48.488;13.436;2024-01-30T00:20:08;11.90;48.30
11239;DHT22;5677;48.488;13.436;2024-01-30T00:22:37;11.90;48.30
11239;DHT22;5677;48.488;13.436;2024-01-30T00:25:04;11.90;48.30
11239;DHT22;5677;48.488;13.436;2024-01-30T00:27:30;11.90;48.20
11239;DHT22;5677;48.488;13.436;2024-01-30T00:29:57;11.90;48.30
11239;DHT22;5677;48.488;13.436;2024-01-30T00:32:24;11.90;48.30
11239;DHT22;5677;48.488;13.436;2024-01-30T00:34:51;11.90;48.30
11239;DHT22;5677;48.488;13.436;2024-01-30T00:37:17;11.90;48.30
11239;DHT22;5677;48.488;13.436;2024-01-30T00:39:45;11.80;48.20
11239;DHT22;5677;48.488;13.436;2024-01-30T00:42:12;11.80;48.20
11239;DHT22;5677;48.488;13.436;2024-01-30T00:44:39;11.90;48.30
11239;DHT22;5677;48.488;13.436;2024-01-30T00:47:06;11.80;48.20
11239;DHT22;5677;48.488;13.436;2024-01-30T00:59:55;11.80;48.30
11239;DHT22;5677;48.488;13.436;2024-01-30T01:02:22;11.80;48.40
11239;DHT22;5677;48.488;13.436;2024-01-30T01:04:49;11.80;48.30
11239;DHT22;5677;48.488;13.436;2024-01-30T01:07:16;11.80;48.30
11239;DHT22;5677;48.488;13.436;2024-01-30T01:09:42;11.80;48.30
11239;DHT22;5677;48.488;13.436;2024-01-30T01:12:09;11.80;48.30
11239;DHT22;5677;48.488;13.436;2024-01-30T01:14:36;11.80;48.30
11239;DHT22;5677;48.488;13.436;2024-01-30T01:17:04;11.70;48.30
11239;DHT22;5677;48.488;13.436;2024-01-30T01:19:31;11.80;48.30
11239;DHT22;5677;48.488;13.436;2024-01-30T01:21:57;11.70;48.40
11239;DHT22;5677;48.488;13.436;2024-01-30T01:24:24;11.70;48.40
11239;DHT22;5677;48.488;13.436;2024-01-30T01:26:51;11.70;48.40
11239;DHT22;5677;48.488;13.436;2024-01-30T01:29:17;11.80;48.40
11239;DHT22;5677;48.488;13.436;2024-01-30T01:31:46;11.70;49.00
11239;DHT22;5677;48.488;13.436;2024-01-30T01:34:14;11.70;48.30
11239;DHT22;5677;48.488;13.436;2024-01-30T01:36:41;11.70;48.40
11239;DHT22;5677;48.488;13.436;2024-01-30T01:39:07;11.70;48.40
11239;DHT22;5677;48.488;13.436;2024-01-30T01:41:35;11.70;48.40
11239;DHT22;5677;48.488;13.436;2024-01-30T01:44:02;11.70;48.40
11239;DHT22;5677;48.488;13.436;2024-01-30T01:46:31;11.70;48.40
11239;DHT22;5677;48.488;13.436;2024-01-30T01:48:59;11.70;48.40
11239;DHT22;5677;48.488;13.436;2024-01-30T01:51:29;11.70;48.50
11239;DHT22;5677;48.488;13.436;2024-01-30T01:53:59;11.70;48.50
11239;DHT22;5677;48.488;13.436;2024-01-30T01:56:27;11.70;48.40
11239;DHT22;5677;48.488;13.436;2024-01-30T01:58:55;11.60;48.40
11239;DHT22;5677;48.488;13.436;2024-01-30T02:01:24;11.70;48.40
11239;DHT22;5677;48.488;13.436;2024-01-30T02:03:51;11.60;48.40
11239;DHT22;5677;48.488;13.436;2024-01-30T02:06:19;11.60;48.30
11239;DHT22;5677;48.488;13.436;2024-01-30T02:08:47;11.60;48.30
11239;DHT22;5677;48.488;13.436;2024-01-30T02:11:14;11.60;48.30
11239;DHT22;5677;48.488;13.436;2024-01-30T02:13:42;11.60;48.30
11239;DHT22;5677;48.488;13.436;2024-01-30T02:16:09;11.60;48.40
11239;DHT22;5677;48.488;13.436;2024-01-30T02:18:35;11.60;48.30
11239;DHT22;5677;48.488;13.436;2024-01-30T02:21:08;11.60;48.40
11239;DHT22;5677;48.488;13.436;2024-01-30T02:23:35;11.60;48.40
11239;DHT22;5677;48.488;13.436;2024-01-30T02:26:03;11.60;48.40
11239;DHT22;5677;48.488;13.436;2024-01-30T02:28:30;11.60;48.40
11239;DHT22;5677;48.488;13.436;2024-01-30T02:30:56;11.60;48.40
11239;DHT22;5677;48.488;13.436;2024-01-30T02:33:23;11.60;48.40
11239;DHT22;5677;48.488;13.436;2024-01-30T02:35:50;11.60;48.40
11239;DHT22;5677;48.488;13.436;2024-01-30T02:38:18;11.50;49.10
11239;DHT22;5677;48.488;13.436;2024-01-30T02:40:45;11.50;48.40
11239;DHT22;5677;48.488;13.436;2024-01-30T02:43:11;11.60;48.40
11239;DHT22;5677;48.488;13.436;2024-01-30T02:45:38;11.60;48.40
11239;DHT22;5677;48.488;13.436;2024-01-30T02:48:06;11.60;48.50
11239;DHT22;5677;48.488;13.436;2024-01-30T02:50:32;11.50;48.40
11239;DHT22;5677;48.488;13.436;2024-01-30T02:52:59;11.60;48.40
11239;DHT22;5677;48.488;13.436;2024-01-30T02:55:27;11.60;48.40
11239;DHT22;5677;48.488;13.436;2024-01-30T02:57:54;11.50;48.40
11239;DHT22;5677;48.488;13.436;2024-01-30T03:00:21;11.50;48.40
11239;DHT22;5677;48.488;13.436;2024-01-30T03:02:47;11.50;48.40
11239;DHT22;5677;48.488;13.436;2024-01-30T03:05:14;11.50;48.50
11239;DHT22;5677;48.488;13.436;2024-01-30T03:07:41;11.50;48.50
11239;DHT22;5677;48.488;13.436;2024-01-30T03:10:08;11.50;48.50
11239;DHT22;5677;48.488;13.436;2024-01-30T03:12:36;11.50;48.50
11239;DHT22;5677;48.488;13.436;2024-01-30T03:15:03;11.50;48.50
11239;DHT22;5677;48.488;13.436;2024-01-30T03:17:30;11.50;48.50
11239;DHT22;5677;48.488;13.436;2024-01-30T03:19:56;11.50;48.50
11239;DHT22;5677;48.488;13.436;2024-01-30T03:22:23;11.50;48.50
11239;DHT22;5677;48.488;13.436;2024-01-30T03:24:50;11.50;48.50
11239;DHT22;5677;48.488;13.436;2024-01-30T03:27:16;11.50;48.50
11239;DHT22;5677;48.488;13.436;2024-01-30T03:29:44;11.50;48.50
11239;DHT22;5677;48.488;13.436;2024-01-30T03:32:11;11.50;48.50
11239;DHT22;5677;48.488;13.436;2024-01-30T03:34:38;11.50;48.50
11239;DHT22;5677;48.488;13.436;2024-01-30T03:37:05;11.50;48.50
11239;DHT22;5677;48.488;13.436;2024-01-30T03:39:32;11.40;48.40
11239;DHT22;5677;48.488;13.436;2024-01-30T03:41:59;11.40;48.40
11239;DHT22;5677;48.488;13.436;2024-01-30T03:44:25;11.40;48.40
11239;DHT22;5677;48.488;13.436;2024-01-30T03:46:53;11.40;48.40
11239;DHT22;5677;48.488;13.436;2024-01-30T03:49:20;11.40;48.40
11239;DHT22;5677;48.488;13.436;2024-01-30T03:51:47;11.40;48.40
11239;DHT22;5677;48.488;13.436;2024-01-30T03:54:14;11.40;48.40
11239;DHT22;5677;48.488;13.436;2024-01-30T03:56:40;11.40;48.40
11239;DHT22;5677;48.488;13.436;2024-01-30T03:59:07;11.40;48.40
11239;DHT22;5677;48.488;13.436;2024-01-30T04:01:34;11.40;48.40
11239;DHT22;5677;48.488;13.436;2024-01-30T04:04:02;11.40;48.40
11239;DHT22;5677;48.488;13.436;2024-01-30T04:06:29;11.40;48.40
11239;DHT22;5677;48.488;13.436;2024-01-30T04:08:55;11.40;48.40
11239;DHT22;5677;48.488;13.436;2024-01-30T04:11:22;11.40;48.40
11239;DHT22;5677;48.488;13.436;2024-01-30T04:13:49;11.40;48.40
11239;DHT22;5677;48.488;13.436;2024-01-30T04:16:21;11.40;48.40
11239;DHT22;5677;48.488;13.436;2024-01-30T04:18:48;11.40;48.40
11239;DHT22;5677;48.488;13.436;2024-01-30T04:21:16;11.40;48.50
11239;DHT22;5677;48.488;13.436;2024-01-30T04:23:43;11.40;48.40
11239;DHT22;5677;48.488;13.436;2024-01-30T04:26:10;11.40;48.50
11239;DHT22;5677;48.488;13.436;2024-01-30T04:28:37;11.40;48.40
11239;DHT22;5677;48.488;13.436;2024-01-30T04:31:03;11.30;48.40
11239;DHT22;5677;48.488;13.436;2024-01-30T04:33:30;11.30;48.40
11239;DHT22;5677;48.488;13.436;2024-01-30T04:35:57;11.40;48.40
11239;DHT22;5677;48.488;13.436;2024-01-30T04:38:25;11.40;48.40
11239;DHT22;5677;48.488;13.436;2024-01-30T04:40:52;11.40;48.40
11239;DHT22;5677;48.488;13.436;2024-01-30T04:43:18;11.40;48.40
11239;DHT22;5677;48.488;13.436;2024-01-30T04:45:45;11.30;48.40
11239;DHT22;5677;48.488;13.436;2024-01-30T04:48:12;11.30;48.40
11239;DHT22;5677;48.488;13.436;2024-01-30T04:50:39;11.30;48.40
11239;DHT22;5677;48.488;13.436;2024-01-30T04:53:05;11.30;48.40
11239;DHT22;5677;48.488;13.436;2024-01-30T04:55:35;11.30;48.50
11239;DHT22;5677;48.488;13.436;2024-01-30T04:58:01;11.30;48.50
11239;DHT22;5677;48.488;13.436;2024-01-30T05:00:28;11.30;48.40
11239;DHT22;5677;48.488;13.436;2024-01-30T05:02:55;11.30;48.50
11239;DHT22;5677;48.488;13.436;2024-01-30T05:05:22;11.30;48.40
11239;DHT22;5677;48.488;13.436;2024-01-30T05:07:49;11.30;48.40
11239;DHT22;5677;48.488;13.436;2024-01-30T05:10:15;11.30;48.50
11239;DHT22;5677;48.488;13.436;2024-01-30T05:12:44;11.30;48.50
11239;DHT22;5677;48.488;13.436;2024-01-30T05:15:10;11.30;48.50
11239;DHT22;5677;48.488;13.436;2024-01-30T05:17:37;11.30;48.50
11239;DHT22;5677;48.488;13.436;2024-01-30T05:20:05;11.30;48.50
11239;DHT22;5677;48.488;13.436;2024-01-30T05:22:31;11.30;48.50
11239;DHT22;5677;48.488;13.436;2024-01-30T05:24:58;11.30;48.50
11239;DHT22;5677;48.488;13.436;2024-01-30T05:27:25;11.30;48.50
11239;DHT22;5677;48.488;13.436;2024-01-30T05:29:53;11.30;48.50
11239;DHT22;5677;48.488;13.436;2024-01-30T05:32:20;11.30;48.40
11239;DHT22;5677;48.488;13.436;2024-01-30T05:34:47;11.30;48.40
11239;DHT22;5677;48.488;13.436;2024-01-30T05:37:15;11.30;48.40
11239;DHT22;5677;48.488;13.436;2024-01-30T05:39:43;11.20;48.90
11239;DHT22;5677;48.488;13.436;2024-01-30T05:42:10;11.20;48.20
11239;DHT22;5677;48.488;13.436;2024-01-30T05:44:36;11.30;48.30
11239;DHT22;5677;48.488;13.436;2024-01-30T05:47:04;11.30;48.30
11239;DHT22;5677;48.488;13.436;2024-01-30T05:49:31;11.20;48.20
11239;DHT22;5677;48.488;13.436;2024-01-30T05:51:58;11.20;48.30
11239;DHT22;5677;48.488;13.436;2024-01-30T05:54:25;11.20;48.30
11239;DHT22;5677;48.488;13.436;2024-01-30T05:56:51;11.20;48.30
11239;DHT22;5677;48.488;13.436;2024-01-30T05:59:18;11.20;48.30
11239;DHT22;5677;48.488;13.436;2024-01-30T06:01:48;11.20;48.40
11239;DHT22;5677;48.488;13.436;2024-01-30T06:04:16;11.20;48.40
11239;DHT22;5677;48.488;13.436;2024-01-30T06:06:43;11.20;48.40
11239;DHT22;5677;48.488;13.436;2024-01-30T06:09:09;11.30;48.50
11239;DHT22;5677;48.488;13.436;2024-01-30T06:11:38;11.20;48.40
11239;DHT22;5677;48.488;13.436;2024-01-30T06:14:05;11.30;48.50
11239;DHT22;5677;48.488;13.436;2024-01-30T06:16:31;11.30;48.50
11239;DHT22;5677;48.488;13.436;2024-01-30T06:18:58;11.30;48.50
11239;DHT22;5677;48.488;13.436;2024-01-30T06:21:26;11.30;48.50
11239;DHT22;5677;48.488;13.436;2024-01-30T06:23:53;11.20;48.40
11239;DHT22;5677;48.488;13.436;2024-01-30T06:26:20;11.30;48.50
11239;DHT22;5677;48.488;13.436;2024-01-30T06:28:47;11.20;48.40
11239;DHT22;5677;48.488;13.436;2024-01-30T06:31:13;11.30;48.50
11239;DHT22;5677;48.488;13.436;2024-01-30T06:33:40;11.30;48.50
11239;DHT22;5677;48.488;13.436;2024-01-30T06:36:08;11.30;48.50
11239;DHT22;5677;48.488;13.436;2024-01-30T06:38:36;11.30;48.50
11239;DHT22;5677;48.488;13.436;2024-01-30T06:41:02;11.30;48.50
11239;DHT22;5677;48.488;13.436;2024-01-30T06:43:29;11.30;48.50
11239;DHT22;5677;48.488;13.436;2024-01-30T06:45:56;11.30;48.50
11239;DHT22;5677;48.488;13.436;2024-01-30T06:48:23;11.30;48.50
11239;DHT22;5677;48.488;13.436;2024-01-30T06:50:49;11.40;48.40
11239;DHT22;5677;48.488;13.436;2024-01-30T06:53:17;11.30;48.40
11239;DHT22;5677;48.488;13.436;2024-01-30T06:55:45;11.30;48.40
11239;DHT22;5677;48.488;13.436;2024-01-30T06:58:12;11.30;48.40
11239;DHT22;5677;48.488;13.436;2024-01-30T07:00:39;11.40;48.40
11239;DHT22;5677;48.488;13.436;2024-01-30T07:03:05;11.40;48.50
11239;DHT22;5677;48.488;13.436;2024-01-30T07:05:32;11.40;48.40
11239;DHT22;5677;48.488;13.436;2024-01-30T07:07:59;11.30;48.40
11239;DHT22;5677;48.488;13.436;2024-01-30T07:10:26;11.30;49.20
11239;DHT22;5677;48.488;13.436;2024-01-30T07:12:54;11.40;48.40
11239;DHT22;5677;48.488;13.436;2024-01-30T07:15:20;11.40;48.40
11239;DHT22;5677;48.488;13.436;2024-01-30T07:17:47;11.40;48.40
11239;DHT22;5677;48.488;13.436;2024-01-30T07:20:14;11.40;48.30
11239;DHT22;5677;48.488;13.436;2024-01-30T07:22:40;11.40;48.30
11239;DHT22;5677;48.488;13.436;2024-01-30T07:25:08;11.40;48.30
11239;DHT22;5677;48.488;13.436;2024-01-30T07:27:35;11.40;48.30
11239;DHT22;5677;48.488;13.436;2024-01-30T07:30:04;11.40;48.30
11239;DHT22;5677;48.488;13.436;2024-01-30T07:32:31;11.40;48.30
11239;DHT22;5677;48.488;13.436;2024-01-30T07:34:58;11.40;48.30
11239;DHT22;5677;48.488;13.436;2024-01-30T07:37:24;11.50;48.30
11239;DHT22;5677;48.488;13.436;2024-01-30T07:39:51;11.50;48.20
11239;DHT22;5677;48.488;13.436;2024-01-30T07:42:18;11.50;48.20
11239;DHT22;5677;48.488;13.436;2024-01-30T07:44:44;11.60;48.10
11239;DHT22;5677;48.488;13.436;2024-01-30T07:47:12;11.70;48.10
11239;DHT22;5677;48.488;13.436;2024-01-30T07:49:40;11.70;48.00
11239;DHT22;5677;48.488;13.436;2024-01-30T07:52:06;11.70;47.80
11239;DHT22;5677;48.488;13.436;2024-01-30T07:54:33;11.80;47.70
11239;DHT22;5677;48.488;13.436;2024-01-30T07:57:00;11.90;47.60
11239;DHT22;5677;48.488;13.436;2024-01-30T07:59:27;11.90;47.50
11239;DHT22;5677;48.488;13.436;2024-01-30T08:01:54;12.00;47.30
11239;DHT22;5677;48.488;13.436;2024-01-30T08:04:22;12.10;47.30
11239;DHT22;5677;48.488;13.436;2024-01-30T08:06:48;12.10;47.20
11239;DHT22;5677;48.488;13.436;2024-01-30T08:09:15;12.20;47.10
11239;DHT22;5677;48.488;13.436;2024-01-30T08:11:42;12.20;47.00
11239;DHT22;5677;48.488;13.436;2024-01-30T08:14:08;12.30;47.00
11239;DHT22;5677;48.488;13.436;2024-01-30T08:16:35;12.40;46.80
11239;DHT22;5677;48.488;13.436;2024-01-30T08:19:02;12.50;46.80
11239;DHT22;5677;48.488;13.436;2024-01-30T08:21:31;12.50;46.50
11239;DHT22;5677;48.488;13.436;2024-01-30T08:24:02;12.60;46.50
11239;DHT22;5677;48.488;13.436;2024-01-30T08:26:29;12.70;46.30
11239;DHT22;5677;48.488;13.436;2024-01-30T08:28:56;12.70;46.00
11239;DHT22;5677;48.488;13.436;2024-01-30T08:31:23;12.80;45.90
11239;DHT22;5677;48.488;13.436;2024-01-30T08:33:49;12.90;45.70
11239;DHT22;5677;48.488;13.436;2024-01-30T08:36:16;13.00;45.50
11239;DHT22;5677;48.488;13.436;2024-01-30T08:38:45;13.00;45.30
11239;DHT22;5677;48.488;13.436;2024-01-30T08:41:12;13.10;45.20
11239;DHT22;5677;48.488;13.436;2024-01-30T08:43:39;13.20;45.00
11239;DHT22;5677;48.488;13.436;2024-01-30T08:46:05;13.20;44.90
11239;DHT22;5677;48.488;13.436;2024-01-30T08:48:32;13.30;44.80
11239;DHT22;5677;48.488;13.436;2024-01-30T08:50:59;13.40;44.50
11239;DHT22;5677;48.488;13.436;2024-01-30T08:53:25;13.40;44.30
11239;DHT22;5677;48.488;13.436;2024-01-30T08:55:53;13.60;44.30
11239;DHT22;5677;48.488;13.436;2024-01-30T08:58:20;13.60;44.00
11239;DHT22;5677;48.488;13.436;2024-01-30T09:00:47;13.70;44.00
11239;DHT22;5677;48.488;13.436;2024-01-30T09:03:14;13.70;43.70
11239;DHT22;5677;48.488;13.436;2024-01-30T09:05:41;13.80;43.50
11239;DHT22;5677;48.488;13.436;2024-01-30T09:08:07;13.90;43.40
11239;DHT22;5677;48.488;13.436;2024-01-30T09:10:34;14.00;43.10
11239;DHT22;5677;48.488;13.436;2024-01-30T09:13:03;14.10;43.10
11239;DHT22;5677;48.488;13.436;2024-01-30T09:15:29;14.10;42.90
11239;DHT22;5677;48.488;13.436;2024-01-30T09:17:56;14.20;42.70
11239;DHT22;5677;48.488;13.436;2024-01-30T09:20:23;14.20;42.50
11239;DHT22;5677;48.488;13.436;2024-01-30T09:22:49;14.30;42.60
11239;DHT22;5677;48.488;13.436;2024-01-30T09:25:16;14.30;42.50
11239;DHT22;5677;48.488;13.436;2024-01-30T09:27:44;14.30;42.40
11239;DHT22;5677;48.488;13.436;2024-01-30T09:30:12;14.30;42.40
11239;DHT22;5677;48.488;13.436;2024-01-30T09:32:39;14.20;42.40
11239;DHT22;5677;48.488;13.436;2024-01-30T09:35:07;14.10;42.60
11239;DHT22;5677;48.488;13.436;2024-01-30T09:37:33;14.10;42.70
11239;DHT22;5677;48.488;13.436;2024-01-30T09:40:01;14.00;42.80
11239;DHT22;5677;48.488;13.436;2024-01-30T09:42:33;13.90;43.00
11239;DHT22;5677;48.488;13.436;2024-01-30T09:45:01;13.90;43.20
11239;DHT22;5677;48.488;13.436;2024-01-30T09:47:31;13.80;43.20
11239;DHT22;5677;48.488;13.436;2024-01-30T09:49:58;13.80;43.40
11239;DHT22;5677;48.488;13.436;2024-01-30T09:52:25;13.70;43.60
11239;DHT22;5677;48.488;13.436;2024-01-30T09:54:53;13.70;43.70
11239;DHT22;5677;48.488;13.436;2024-01-30T09:57:20;13.60;43.80
11239;DHT22;5677;48.488;13.436;2024-01-30T09:59:47;13.60;43.90
11239;DHT22;5677;48.488;13.436;2024-01-30T10:02:14;13.50;44.00
11239;DHT22;5677;48.488;13.436;2024-01-30T10:04:42;13.50;44.10
11239;DHT22;5677;48.488;13.436;2024-01-30T10:07:10;13.40;44.20
11239;DHT22;5677;48.488;13.436;2024-01-30T10:09:38;13.40;44.40
11239;DHT22;5677;48.488;13.436;2024-01-30T10:12:06;13.40;44.40
11239;DHT22;5677;48.488;13.436;2024-01-30T10:14:33;13.30;44.50
11239;DHT22;5677;48.488;13.436;2024-01-30T10:17:01;13.30;44.60
11239;DHT22;5677;48.488;13.436;2024-01-30T10:19:28;13.30;44.70
11239;DHT22;5677;48.488;13.436;2024-01-30T10:21:56;13.30;44.80
11239;DHT22;5677;48.488;13.436;2024-01-30T10:24:24;13.20;44.80
11239;DHT22;5677;48.488;13.436;2024-01-30T10:26:51;13.20;44.80
11239;DHT22;5677;48.488;13.436;2024-01-30T10:29:18;13.20;44.90
11239;DHT22;5677;48.488;13.436;2024-01-30T10:31:44;13.20;45.10
11239;DHT22;5677;48.488;13.436;2024-01-30T10:34:12;13.20;45.10
11239;DHT22;5677;48.488;13.436;2024-01-30T10:36:40;13.10;45.10
11239;DHT22;5677;48.488;13.436;2024-01-30T10:39:09;13.10;45.30
11239;DHT22;5677;48.488;13.436;2024-01-30T10:41:40;13.10;45.30
11239;DHT22;5677;48.488;13.436;2024-01-30T10:44:10;13.10;45.40
11239;DHT22;5677;48.488;13.436;2024-01-30T10:46:38;13.10;45.50
11239;DHT22;5677;48.488;13.436;2024-01-30T10:49:05;13.00;45.40
11239;DHT22;5677;48.488;13.436;2024-01-30T10:51:32;13.00;45.50
11239;DHT22;5677;48.488;13.436;2024-01-30T10:54:01;13.00;45.60
11239;DHT22;5677;48.488;13.436;2024-01-30T10:56:32;13.00;45.60
11239;DHT22;5677;48.488;13.436;2024-01-30T10:58:59;13.00;45.70
11239;DHT22;5677;48.488;13.436;2024-01-30T11:01:28;13.00;45.70
11239;DHT22;5677;48.488;13.436;2024-01-30T11:03:55;13.00;45.70
11239;DHT22;5677;48.488;13.436;2024-01-30T11:06:23;12.90;45.90
11239;DHT22;5677;48.488;13.436;2024-01-30T11:09:00;12.90;45.90
11239;DHT22;5677;48.488;13.436;2024-01-30T11:11:27;12.90;45.90
11239;DHT22;5677;48.488;13.436;2024-01-30T11:13:55;13.00;46.00
11239;DHT22;5677;48.488;13.436;2024-01-30T11:16:22;12.90;46.00
11239;DHT22;5677;48.488;13.436;2024-01-30T11:18:50;12.90;46.10
11239;DHT22;5677;48.488;13.436;2024-01-30T11:21:17;12.90;46.20
11239;DHT22;5677;48.488;13.436;2024-01-30T11:23:44;12.90;46.20
11239;DHT22;5677;48.488;13.436;2024-01-30T11:26:11;12.90;46.20
11239;DHT22;5677;48.488;13.436;2024-01-30T11:28:38;12.90;46.20
11239;DHT22;5677;48.488;13.436;2024-01-30T11:31:06;12.90;46.20
11239;DHT22;5677;48.488;13.436;2024-01-30T11:33:33;12.90;46.20
11239;DHT22;5677;48.488;13.436;2024-01-30T11:36:01;12.90;46.30
11239;DHT22;5677;48.488;13.436;2024-01-30T11:38:28;12.90;46.30
11239;DHT22;5677;48.488;13.436;2024-01-30T11:40:55;12.90;46.30
11239;DHT22;5677;48.488;13.436;2024-01-30T11:43:23;12.90;46.30
11239;DHT22;5677;48.488;13.436;2024-01-30T11:45:50;12.90;46.30
11239;DHT22;5677;48.488;13.436;2024-01-30T11:48:18;12.90;46.30
11239;DHT22;5677;48.488;13.436;2024-01-30T11:50:46;12.90;46.40
11239;DHT22;5677;48.488;13.436;2024-01-30T11:53:13;12.90;46.30
11239;DHT22;5677;48.488;13.436;2024-01-30T11:55:40;12.90;46.30
11239;DHT22;5677;48.488;13.436;2024-01-30T11:58:07;12.90;46.30
11239;DHT22;5677;48.488;13.436;2024-01-30T12:00:33;12.90;46.30
11239;DHT22;5677;48.488;13.436;2024-01-30T12:03:01;12.90;46.90
11239;DHT22;5677;48.488;13.436;2024-01-30T12:05:29;12.90;46.20
11239;DHT22;5677;48.488;13.436;2024-01-30T12:07:56;12.90;46.20
11239;DHT22;5677;48.488;13.436;2024-01-30T12:10:24;13.00;46.10
11239;DHT22;5677;48.488;13.436;2024-01-30T12:12:52;13.00;46.10
11239;DHT22;5677;48.488;13.436;2024-01-30T12:15:21;13.00;46.10
11239;DHT22;5677;48.488;13.436;2024-01-30T12:17:48;13.10;46.00
11239;DHT22;5677;48.488;13.436;2024-01-30T12:20:18;13.20;45.80
11239;DHT22;5677;48.488;13.436;2024-01-30T12:22:46;13.30;45.60
11239;DHT22;5677;48.488;13.436;2024-01-30T12:25:14;13.50;45.20
11239;DHT22;5677;48.488;13.436;2024-01-30T12:27:43;13.70;44.80
11239;DHT22;5677;48.488;13.436;2024-01-30T12:30:12;14.00;44.20
11239;DHT22;5677;48.488;13.436;2024-01-30T12:32:41;14.20;43.60
11239;DHT22;5677;48.488;13.436;2024-01-30T12:35:10;14.30;43.20
11239;DHT22;5677;48.488;13.436;2024-01-30T12:37:37;14.40;43.00
11239;DHT22;5677;48.488;13.436;2024-01-30T12:40:06;14.30;43.00
11239;DHT22;5677;48.488;13.436;2024-01-30T12:42:34;14.30;43.10
11239;DHT22;5677;48.488;13.436;2024-01-30T12:45:03;14.20;43.10
11239;DHT22;5677;48.488;13.436;2024-01-30T12:47:30;14.20;43.30
11239;DHT22;5677;48.488;13.436;2024-01-30T12:49:57;14.20;43.40
11239;DHT22;5677;48.488;13.436;2024-01-30T12:52:24;14.20;43.30
11239;DHT22;5677;48.488;13.436;2024-01-30T12:54:51;14.30;43.30
11239;DHT22;5677;48.488;13.436;2024-01-30T12:57:19;14.30;43.20
11239;DHT22;5677;48.488;13.436;2024-01-30T12:59:46;14.30;43.10
11239;DHT22;5677;48.488;13.436;2024-01-30T13:02:13;14.40;43.00
11239;DHT22;5677;48.488;13.436;2024-01-30T13:04:41;14.60;42.80
11239;DHT22;5677;48.488;13.436;2024-01-30T13:07:08;14.90;42.30
11239;DHT22;5677;48.488;13.436;2024-01-30T13:09:35;15.10;41.80
11239;DHT22;5677;48.488;13.436;2024-01-30T13:12:02;15.20;41.40
11239;DHT22;5677;48.488;13.436;2024-01-30T13:14:30;15.20;41.20
11239;DHT22;5677;48.488;13.436;2024-01-30T13:16:57;15.00;41.20
11239;DHT22;5677;48.488;13.436;2024-01-30T13:19:24;14.80;41.40
11239;DHT22;5677;48.488;13.436;2024-01-30T13:21:50;14.60;41.90
11239;DHT22;5677;48.488;13.436;2024-01-30T13:24:17;14.40;42.30
11239;DHT22;5677;48.488;13.436;2024-01-30T13:26:46;14.20;42.70
11239;DHT22;5677;48.488;13.436;2024-01-30T13:29:13;14.10;43.10
11239;DHT22;5677;48.488;13.436;2024-01-30T13:31:41;13.90;43.50
11239;DHT22;5677;48.488;13.436;2024-01-30T13:34:10;13.80;43.90
11239;DHT22;5677;48.488;13.436;2024-01-30T13:36:38;13.70;44.20
11239;DHT22;5677;48.488;13.436;2024-01-30T13:39:04;13.60;44.40
11239;DHT22;5677;48.488;13.436;2024-01-30T13:41:35;13.50;44.70
11239;DHT22;5677;48.488;13.436;2024-01-30T13:44:01;13.50;44.90
11239;DHT22;5677;48.488;13.436;2024-01-30T13:46:28;13.40;45.00
11239;DHT22;5677;48.488;13.436;2024-01-30T13:48:57;13.30;45.20
11239;DHT22;5677;48.488;13.436;2024-01-30T13:51:23;13.30;45.30
11239;DHT22;5677;48.488;13.436;2024-01-30T13:53:50;13.30;45.40
11239;DHT22;5677;48.488;13.436;2024-01-30T13:56:17;13.20;45.40
11239;DHT22;5677;48.488;13.436;2024-01-30T13:58:44;13.20;45.50
11239;DHT22;5677;48.488;13.436;2024-01-30T14:01:10;13.20;45.50
11239;DHT22;5677;48.488;13.436;2024-01-30T14:03:37;13.20;45.60
11239;DHT22;5677;48.488;13.436;2024-01-30T14:06:06;13.20;46.40
11239;DHT22;5677;48.488;13.436;2024-01-30T14:08:32;13.10;45.80
11239;DHT22;5677;48.488;13.436;2024-01-30T14:10:59;13.10;45.80
11239;DHT22;5677;48.488;13.436;2024-01-30T14:13:26;13.10;45.90
11239;DHT22;5677;48.488;13.436;2024-01-30T14:15:53;13.10;45.90
11239;DHT22;5677;48.488;13.436;2024-01-30T14:18:19;13.10;46.00
11239;DHT22;5677;48.488;13.436;2024-01-30T14:20:46;13.10;46.00
11239;DHT22;5677;48.488;13.436;2024-01-30T14:23:16;13.00;46.10
11239;DHT22;5677;48.488;13.436;2024-01-30T14:25:43;13.10;46.10
11239;DHT22;5677;48.488;13.436;2024-01-30T14:28:10;13.00;46.10
11239;DHT22;5677;48.488;13.436;2024-01-30T14:30:37;13.00;46.40
11239;DHT22;5677;48.488;13.436;2024-01-30T14:33:04;13.00;46.10
11239;DHT22;5677;48.488;13.436;2024-01-30T14:35:32;13.10;46.30
11239;DHT22;5677;48.488;13.436;2024-01-30T14:37:59;13.00;46.20
11239;DHT22;5677;48.488;13.436;2024-01-30T14:40:27;13.00;46.20
11239;DHT22;5677;48.488;13.436;2024-01-30T14:42:54;13.00;46.30
11239;DHT22;5677;48.488;13.436;2024-01-30T14:45:21;13.00;46.30
11239;DHT22;5677;48.488;13.436;2024-01-30T14:47:48;13.00;46.40
11239;DHT22;5677;48.488;13.436;2024-01-30T14:50:15;13.00;46.40
11239;DHT22;5677;48.488;13.436;2024-01-30T14:52:43;12.90;46.40
11239;DHT22;5677;48.488;13.436;2024-01-30T14:55:10;12.90;46.50
11239;DHT22;5677;48.488;13.436;2024-01-30T14:57:38;12.90;46.50
11239;DHT22;5677;48.488;13.436;2024-01-30T15:00:08;12.90;46.50
11239;DHT22;5677;48.488;13.436;2024-01-30T15:02:35;12.90;46.50
11239;DHT22;5677;48.488;13.436;2024-01-30T15:05:02;12.90;46.60
11239;DHT22;5677;48.488;13.436;2024-01-30T15:07:29;12.90;46.60
11239;DHT22;5677;48.488;13.436;2024-01-30T15:09:55;12.90;46.60
11239;DHT22;5677;48.488;13.436;2024-01-30T15:12:22;12.90;46.70
11239;DHT22;5677;48.488;13.436;2024-01-30T15:14:50;12.90;46.70
11239;DHT22;5677;48.488;13.436;2024-01-30T15:17:17;12.80;46.60
11239;DHT22;5677;48.488;13.436;2024-01-30T15:19:44;12.80;46.60
11239;DHT22;5677;48.488;13.436;2024-01-30T15:22:11;12.80;46.70
11239;DHT22;5677;48.488;13.436;2024-01-30T15:24:37;12.80;46.70
11239;DHT22;5677;48.488;13.436;2024-01-30T15:27:04;12.80;46.70
11239;DHT22;5677;48.488;13.436;2024-01-30T15:29:31;12.80;46.70
11239;DHT22;5677;48.488;13.436;2024-01-30T15:31:59;12.80;46.80
11239;DHT22;5677;48.488;13.436;2024-01-30T15:34:26;12.80;46.70
11239;DHT22;5677;48.488;13.436;2024-01-30T15:36:53;12.80;46.80
11239;DHT22;5677;48.488;13.436;2024-01-30T15:39:19;12.70;46.80